ETD142 LSZH-OMAA
Flight info
| Callsign | ETD142 |
|---|---|
| Flight time | N/A |
| Altitude | 33000 |
| Route | DEGES Z2 TUNUM Z204 GEDSO DCT VEKEN DCT DEGUM DCT MAGAM DCT TIVNU DCT MITNO DCT VABEK UL603 OLOTA DCT DISOR DCT MES UL609 RDS DCT VANZA DCT LAKTO L560 SILKA M872 BDB Y214 RAPMA DCT KUVSO DCT KATIT DCT DANUX DCT TANSU G783 VAVIM P899 ROVOS |
| Aircraft | A21N/M-SDE3FGHIRWY/LB1 |
Departure
| Time | 2026-04-26 21:06 |
|---|---|
| Airport | Zürich Airport (LSZH) |
Arrival
| Time | N/A |
|---|---|
| Airport | Zayed International Airport (OMAA) |
| Time | Latitude | Longitude | Altitude | Speed | Heading |
|---|---|---|---|---|---|
| 2026-04-26 20:41 | 47.46056 | 8.55529 | 1387 ft | 0 kts | 6° |
| 2026-04-26 20:56 | 47.46049 | 8.55528 | 1387 ft | 2 kts | 6° |
| 2026-04-26 20:57 | 47.46034 | 8.55526 | 1387 ft | 2 kts | 6° |
| 2026-04-26 20:57 | 47.46019 | 8.55524 | 1387 ft | 2 kts | 6° |
| 2026-04-26 20:57 | 47.46004 | 8.55522 | 1387 ft | 2 kts | 6° |
| 2026-04-26 20:57 | 47.45990 | 8.55519 | 1387 ft | 2 kts | 19° |
| 2026-04-26 20:58 | 47.45977 | 8.55507 | 1387 ft | 2 kts | 47° |
| 2026-04-26 20:58 | 47.45969 | 8.55488 | 1387 ft | 2 kts | 74° |
| 2026-04-26 20:58 | 47.45967 | 8.55471 | 1387 ft | 0 kts | 94° |
| 2026-04-26 20:58 | 47.45968 | 8.55461 | 1387 ft | 1 kts | 97° |
| 2026-04-26 20:59 | 47.45968 | 8.55460 | 1387 ft | 0 kts | 97° |
| 2026-04-26 21:02 | 47.45968 | 8.55463 | 1387 ft | 2 kts | 97° |
| 2026-04-26 21:02 | 47.45963 | 8.55532 | 1388 ft | 10 kts | 97° |
| 2026-04-26 21:02 | 47.45953 | 8.55664 | 1390 ft | 12 kts | 96° |
| 2026-04-26 21:02 | 47.45945 | 8.55780 | 1393 ft | 10 kts | 96° |
| 2026-04-26 21:03 | 47.45938 | 8.55891 | 1395 ft | 10 kts | 96° |
| 2026-04-26 21:03 | 47.45931 | 8.55993 | 1397 ft | 9 kts | 96° |
| 2026-04-26 21:03 | 47.45922 | 8.56109 | 1398 ft | 12 kts | 96° |
| 2026-04-26 21:03 | 47.45914 | 8.56224 | 1400 ft | 10 kts | 96° |
| 2026-04-26 21:04 | 47.45940 | 8.56307 | 1402 ft | 9 kts | 26° |
| 2026-04-26 21:04 | 47.46006 | 8.56323 | 1402 ft | 10 kts | 6° |
| 2026-04-26 21:04 | 47.46081 | 8.56356 | 1401 ft | 11 kts | 50° |
| 2026-04-26 21:04 | 47.46137 | 8.56421 | 1402 ft | 10 kts | 0° |
| 2026-04-26 21:05 | 47.46155 | 8.56409 | 1401 ft | 0 kts | 318° |
| 2026-04-26 21:05 | 47.46158 | 8.56406 | 1401 ft | 3 kts | 318° |
| 2026-04-26 21:05 | 47.46320 | 8.56185 | 1396 ft | 68 kts | 318° |
| 2026-04-26 21:06 | 47.46844 | 8.55471 | 1383 ft | 134 kts | 317° |
| 2026-04-26 21:06 | 47.47654 | 8.54369 | 1416 ft | 179 kts | 318° |
| 2026-04-26 21:06 | 47.48581 | 8.53155 | 2008 ft | 177 kts | 323° |
| 2026-04-26 21:06 | 47.49553 | 8.52088 | 2674 ft | 177 kts | 327° |
| 2026-04-26 21:07 | 47.50569 | 8.51028 | 3219 ft | 182 kts | 327° |
| 2026-04-26 21:07 | 47.51631 | 8.49957 | 3557 ft | 194 kts | 327° |
| 2026-04-26 21:07 | 47.52588 | 8.48461 | 3843 ft | 211 kts | 299° |
| 2026-04-26 21:07 | 47.53160 | 8.46377 | 4156 ft | 226 kts | 291° |
| 2026-04-26 21:08 | 47.53524 | 8.44041 | 4581 ft | 240 kts | 268° |
| 2026-04-26 21:08 | 47.53107 | 8.41623 | 5001 ft | 255 kts | 245° |
| 2026-04-26 21:08 | 47.52245 | 8.39258 | 5523 ft | 265 kts | 239° |
| 2026-04-26 21:08 | 47.51018 | 8.37259 | 6173 ft | 270 kts | 210° |
| 2026-04-26 21:09 | 47.49249 | 8.36572 | 6890 ft | 270 kts | 175° |
| 2026-04-26 21:09 | 47.47494 | 8.37478 | 7568 ft | 270 kts | 141° |
| 2026-04-26 21:09 | 47.46390 | 8.39636 | 8184 ft | 270 kts | 111° |
| 2026-04-26 21:09 | 47.45800 | 8.42263 | 8806 ft | 273 kts | 102° |
| 2026-04-26 21:10 | 47.45599 | 8.45044 | 9315 ft | 280 kts | 90° |
| 2026-04-26 21:10 | 47.45629 | 8.47986 | 9774 ft | 290 kts | 88° |
| 2026-04-26 21:10 | 47.45676 | 8.50959 | 10361 ft | 294 kts | 89° |
| 2026-04-26 21:10 | 47.45705 | 8.54020 | 10788 ft | 305 kts | 88° |